createdAt,value
2022-10-25T00:01:18.036Z,100549.16
2022-10-25T00:03:44.760Z,100520.50
2022-10-25T00:06:12.247Z,100539.03
2022-10-25T00:08:38.941Z,100545.69
2022-10-25T00:11:07.372Z,100537.06
2022-10-25T00:13:34.373Z,100493.75
2022-10-25T00:16:00.802Z,100510.91
2022-10-25T00:18:27.427Z,100557.53
2022-10-25T00:20:54.341Z,100549.06
2022-10-25T00:23:20.868Z,100546.22
2022-10-25T00:25:47.289Z,100516.66
2022-10-25T00:28:13.751Z,100555.50
2022-10-25T00:30:40.212Z,100540.03
2022-10-25T00:33:06.744Z,100432.75
2022-10-25T00:35:36.242Z,100544.03
2022-10-25T00:38:02.798Z,100551.53
2022-10-25T00:40:29.509Z,100543.69
2022-10-25T00:42:56.088Z,100548.44
2022-10-25T00:45:28.162Z,100412.16
2022-10-25T00:48:09.999Z,100533.84
2022-10-25T00:50:48.279Z,100460.38
2022-10-25T00:53:21.413Z,100552.13
2022-10-25T00:55:55.188Z,100557.81
2022-10-25T00:58:25.898Z,100556.94
2022-10-25T01:00:52.641Z,100516.72
2022-10-25T01:03:22.446Z,100528.53
2022-10-25T01:05:49.727Z,100546.81
2022-10-25T01:08:17.431Z,100542.59
2022-10-25T01:10:43.857Z,100543.75
2022-10-25T01:13:10.495Z,100554.84
2022-10-25T01:16:01.198Z,100550.28
2022-10-25T01:18:58.558Z,100553.53
2022-10-25T01:21:44.809Z,100516.72
2022-10-25T01:24:49.033Z,100548.72
2022-10-25T01:27:40.571Z,100546.47
2022-10-25T01:30:12.512Z,100528.75
2022-10-25T01:32:46.040Z,100440.34
2022-10-25T01:35:27.769Z,100555.44
2022-10-25T01:38:00.232Z,100563.38
2022-10-25T01:40:41.682Z,100524.19
2022-10-25T01:43:23.433Z,100552.38
2022-10-25T01:46:05.465Z,100551.78
2022-10-25T01:48:36.525Z,100556.38
2022-10-25T01:51:12.163Z,100553.69
2022-10-25T01:53:50.401Z,100555.19
2022-10-25T01:56:58.101Z,100534.53
2022-10-25T01:59:37.518Z,100549.94
2022-10-25T02:02:10.649Z,100572.94
2022-10-25T02:04:46.593Z,100552.47
2022-10-25T02:07:42.255Z,100545.28
2022-10-25T02:10:18.401Z,100536.41
2022-10-25T02:13:04.260Z,100547.22
2022-10-25T02:15:48.889Z,100469.06
2022-10-25T02:18:20.483Z,100564.13
2022-10-25T02:20:50.338Z,100578.25
2022-10-25T02:23:18.707Z,100550.25
2022-10-25T02:25:45.826Z,100576.69
2022-10-25T02:28:14.579Z,100548.63
2022-10-25T02:30:43.225Z,100385.69
2022-10-25T02:33:10.428Z,100570.31
2022-10-25T02:35:37.373Z,100586.53
2022-10-25T02:38:04.287Z,100563.81
2022-10-25T02:40:31.287Z,100568.31
2022-10-25T02:42:57.728Z,100550.47
2022-10-25T02:45:24.476Z,100568.34
2022-10-25T02:47:50.957Z,100564.94
2022-10-25T02:50:17.890Z,100572.94
2022-10-25T02:52:45.094Z,100574.22
2022-10-25T02:55:11.690Z,100549.31
2022-10-25T02:57:38.643Z,100456.00
2022-10-25T03:00:07.518Z,100584.81
2022-10-25T03:02:34.039Z,100580.91
2022-10-25T03:05:00.674Z,100579.16
2022-10-25T03:07:27.157Z,100587.84
2022-10-25T03:09:53.616Z,100491.91
2022-10-25T03:12:19.989Z,100586.22
2022-10-25T03:14:46.702Z,100586.53
2022-10-25T03:17:13.126Z,100549.56
2022-10-25T03:19:39.474Z,100590.78
2022-10-25T03:22:06.142Z,100594.53
2022-10-25T03:24:32.542Z,100590.16
2022-10-25T03:26:58.928Z,100573.88
2022-10-25T03:29:25.324Z,100589.63
2022-10-25T03:31:51.686Z,100568.34
2022-10-25T03:34:18.144Z,100588.88
2022-10-25T03:36:44.546Z,100572.25
2022-10-25T03:39:11.303Z,100606.06
2022-10-25T03:41:37.830Z,100594.81
2022-10-25T03:44:04.741Z,100604.97
2022-10-25T03:46:31.238Z,100608.47
2022-10-25T03:48:57.830Z,100603.91
2022-10-25T03:51:25.947Z,100605.81
2022-10-25T03:53:52.357Z,100546.41
2022-10-25T03:56:18.885Z,100610.78
2022-10-25T03:58:45.523Z,100598.50
2022-10-25T04:01:12.210Z,100578.22
2022-10-25T04:03:39.228Z,100609.28
2022-10-25T04:06:05.857Z,100613.94
2022-10-25T04:08:32.518Z,100631.13
2022-10-25T04:11:00.391Z,100635.72
2022-10-25T04:13:27.013Z,100632.91
2022-10-25T04:15:53.601Z,100630.59
2022-10-25T04:18:20.667Z,100639.81
2022-10-25T04:20:47.290Z,100550.19
2022-10-25T04:23:13.717Z,100389.53
2022-10-25T04:25:40.141Z,100631.75
2022-10-25T04:28:06.831Z,100622.75
2022-10-25T04:30:36.543Z,100616.63
2022-10-25T04:33:05.798Z,100589.81
2022-10-25T04:35:32.173Z,100624.47
2022-10-25T04:37:58.922Z,100607.94
2022-10-25T04:40:25.697Z,100551.75
2022-10-25T04:42:52.194Z,100617.69
2022-10-25T04:45:18.755Z,100631.09
2022-10-25T04:47:45.311Z,100635.91
2022-10-25T04:50:11.860Z,100627.53
2022-10-25T04:52:38.639Z,100635.91
2022-10-25T04:55:05.585Z,100626.31
2022-10-25T04:57:32.122Z,100631.72
2022-10-25T04:59:59.225Z,100629.03
2022-10-25T05:02:25.807Z,100626.84
2022-10-25T05:04:52.501Z,100626.97
2022-10-25T05:07:20.372Z,100388.09
2022-10-25T05:09:47.667Z,100525.69
2022-10-25T05:12:15.275Z,100672.53
2022-10-25T05:14:41.861Z,100646.72
2022-10-25T05:17:08.417Z,100645.81
2022-10-25T05:19:34.984Z,100643.97
2022-10-25T05:22:01.613Z,100638.81
2022-10-25T05:24:28.256Z,100644.47
2022-10-25T05:26:55.811Z,100612.44
2022-10-25T05:29:22.208Z,100539.72
2022-10-25T05:31:49.833Z,100648.63
2022-10-25T05:34:17.670Z,100643.22
2022-10-25T05:36:44.053Z,100573.91
2022-10-25T05:39:10.485Z,100652.50
2022-10-25T05:41:37.462Z,100651.97
2022-10-25T05:44:07.026Z,100631.63
2022-10-25T05:46:33.712Z,100619.31
2022-10-25T05:49:00.739Z,100631.41
2022-10-25T05:51:37.276Z,100640.25
2022-10-25T05:54:13.231Z,100694.22
2022-10-25T05:56:40.383Z,100648.03
2022-10-25T05:59:11.996Z,100461.84
2022-10-25T06:01:41.193Z,100649.38
2022-10-25T06:04:08.097Z,100677.69
2022-10-25T06:06:36.226Z,100667.66
2022-10-25T06:09:03.144Z,100652.38
2022-10-25T06:11:30.346Z,100689.50
2022-10-25T06:13:56.753Z,100656.00
2022-10-25T06:16:23.901Z,100574.22
2022-10-25T06:18:50.724Z,100626.09
2022-10-25T06:21:20.157Z,100649.47
2022-10-25T06:23:47.943Z,100715.81
2022-10-25T06:26:16.942Z,100565.53
2022-10-25T06:28:43.710Z,100681.28
2022-10-25T06:31:13.396Z,100585.22
2022-10-25T06:33:40.057Z,100706.66
2022-10-25T06:36:10.439Z,100712.66
2022-10-25T06:38:36.759Z,100699.13
2022-10-25T06:41:10.170Z,100462.19
2022-10-25T06:43:36.727Z,100724.41
2022-10-25T06:46:10.644Z,100594.31
2022-10-25T06:48:37.303Z,100723.97
2022-10-25T06:51:11.098Z,100731.31
2022-10-25T06:53:38.974Z,100702.53
2022-10-25T06:56:09.420Z,100527.38
2022-10-25T06:58:40.248Z,100627.13
2022-10-25T07:01:15.046Z,100660.88
2022-10-25T07:03:42.588Z,100619.06
2022-10-25T07:06:14.484Z,100648.81
2022-10-25T07:08:43.356Z,100591.56
2022-10-25T07:11:18.057Z,100564.19
2022-10-25T07:13:44.870Z,100736.25
2022-10-25T07:16:13.841Z,100729.66
2022-10-25T07:18:41.093Z,100758.16
2022-10-25T07:21:13.112Z,100761.44
2022-10-25T07:23:42.589Z,100671.09
2022-10-25T07:26:13.983Z,100760.94
2022-10-25T07:28:42.130Z,100772.78
2022-10-25T07:31:15.215Z,100777.84
2022-10-25T07:33:41.927Z,100776.09
2022-10-25T07:36:11.652Z,100774.66
2022-10-25T07:38:38.501Z,100692.09
2022-10-25T07:41:05.122Z,100752.66
2022-10-25T07:43:31.554Z,100781.19
2022-10-25T07:45:59.716Z,100779.53
2022-10-25T07:48:26.132Z,100769.84
2022-10-25T07:50:52.772Z,100696.69
2022-10-25T07:53:19.731Z,100780.91
2022-10-25T07:55:54.904Z,100781.53
2022-10-25T07:58:21.507Z,100578.63
2022-10-25T08:00:47.951Z,100802.59
2022-10-25T08:03:16.232Z,100762.00
2022-10-25T08:05:47.674Z,100769.00
2022-10-25T08:08:14.887Z,100797.03
2022-10-25T08:10:43.387Z,100802.69
2022-10-25T08:13:10.133Z,100791.47
2022-10-25T08:15:36.683Z,100804.78
2022-10-25T08:18:04.028Z,100820.47
2022-10-25T08:20:49.647Z,100807.47
2022-10-25T08:23:16.991Z,100809.06
2022-10-25T08:25:43.351Z,100825.50
2022-10-25T08:28:09.989Z,100816.16
2022-10-25T08:30:36.599Z,100698.50
2022-10-25T08:33:03.439Z,100815.84
2022-10-25T08:35:29.811Z,100751.97
2022-10-25T08:37:56.411Z,100798.56
2022-10-25T08:40:38.990Z,100814.31
2022-10-25T08:43:21.666Z,100835.84
2022-10-25T08:45:56.249Z,100827.53
2022-10-25T08:48:32.925Z,100834.63
2022-10-25T08:51:27.147Z,100845.31
2022-10-25T08:53:57.281Z,100734.56
2022-10-25T08:56:25.531Z,100844.81
2022-10-25T08:58:58.158Z,100833.50
2022-10-25T09:01:30.116Z,100832.19
2022-10-25T09:03:59.185Z,100853.34
2022-10-25T09:06:37.574Z,100775.44
2022-10-25T09:09:27.161Z,100748.88
2022-10-25T09:12:02.512Z,100856.09
2022-10-25T09:14:38.935Z,100857.25
2022-10-25T09:17:20.289Z,100795.72
2022-10-25T09:19:46.633Z,100861.63
2022-10-25T09:22:29.566Z,100868.44
2022-10-25T09:25:12.374Z,100814.66
2022-10-25T09:27:51.045Z,100861.75
2022-10-25T09:30:17.899Z,100873.16
2022-10-25T09:32:58.839Z,100875.19
2022-10-25T09:35:40.866Z,100876.44
2022-10-25T09:38:23.904Z,100861.72
2022-10-25T09:41:01.278Z,100884.00
2022-10-25T09:43:40.932Z,100903.28
2022-10-25T09:46:13.964Z,100823.84
2022-10-25T09:48:57.919Z,100689.25
2022-10-25T09:51:31.766Z,100895.59
2022-10-25T09:54:04.899Z,100888.50
2022-10-25T09:56:31.293Z,100895.22
2022-10-25T09:59:01.186Z,100831.66
2022-10-25T10:01:29.242Z,100916.09
2022-10-25T10:04:11.085Z,100911.66
2022-10-25T10:06:40.070Z,100904.41
2022-10-25T10:09:10.579Z,100898.03
2022-10-25T10:11:37.910Z,100796.31
2022-10-25T10:14:31.315Z,100880.31
2022-10-25T10:16:59.672Z,100905.22
2022-10-25T10:19:30.160Z,100937.34
2022-10-25T10:21:58.428Z,100908.19
2022-10-25T10:24:33.932Z,100907.78
2022-10-25T10:27:05.907Z,100886.22
2022-10-25T10:29:36.585Z,100918.31
2022-10-25T10:32:06.735Z,100880.56
2022-10-25T10:34:41.426Z,100844.06
2022-10-25T10:37:14.260Z,100917.56
2022-10-25T10:40:11.347Z,100922.75
2022-10-25T10:42:41.362Z,100806.91
2022-10-25T10:45:12.263Z,100929.53
2022-10-25T10:47:43.532Z,100939.22
2022-10-25T10:50:22.541Z,100952.75
2022-10-25T10:53:03.470Z,100898.50
2022-10-25T10:55:45.225Z,100941.56
2022-10-25T10:58:16.799Z,100816.31
2022-10-25T11:00:55.803Z,100818.66
2022-10-25T11:03:48.669Z,100933.69
2022-10-25T11:06:35.138Z,100798.25
2022-10-25T11:09:12.362Z,100951.63
2022-10-25T11:11:39.988Z,100934.97
2022-10-25T11:14:16.700Z,100934.88
2022-10-25T11:17:25.214Z,100939.16
2022-10-25T11:20:18.354Z,100889.03
2022-10-25T11:23:06.986Z,100949.97
2022-10-25T11:25:48.491Z,100962.06
2022-10-25T11:28:30.339Z,100939.97
2022-10-25T11:31:18.314Z,100960.31
2022-10-25T11:34:05.616Z,100950.94
2022-10-25T11:36:37.233Z,100957.28
2022-10-25T11:39:37.993Z,100934.97
2022-10-25T11:42:15.050Z,100960.97
2022-10-25T11:45:00.750Z,100980.16
2022-10-25T11:48:02.620Z,100984.63
2022-10-25T11:50:40.417Z,100826.41
2022-10-25T11:53:25.753Z,100979.84
2022-10-25T11:56:04.730Z,100969.69
2022-10-25T11:58:49.959Z,100988.66
2022-10-25T12:01:30.404Z,100979.16
2022-10-25T12:04:01.999Z,100967.81
2022-10-25T12:06:52.136Z,100858.44
2022-10-25T12:09:59.515Z,100956.31
2022-10-25T12:12:37.543Z,100931.75
2022-10-25T12:15:04.373Z,100956.78
2022-10-25T12:17:33.908Z,100884.28
2022-10-25T12:20:07.475Z,100952.25
2022-10-25T12:22:41.994Z,100868.22
2022-10-25T12:25:20.342Z,100915.63
2022-10-25T12:27:55.801Z,100989.69
2022-10-25T12:30:23.459Z,100964.56
2022-10-25T12:33:02.416Z,100953.84
2022-10-25T12:35:33.975Z,100893.97
2022-10-25T12:38:08.143Z,101006.72
2022-10-25T12:40:41.786Z,101009.38
2022-10-25T12:43:17.193Z,100951.66
2022-10-25T12:45:58.290Z,100963.47
2022-10-25T12:49:03.211Z,101019.34
2022-10-25T12:52:11.495Z,101003.69
2022-10-25T12:55:11.354Z,101013.31
2022-10-25T12:58:06.090Z,101017.25
2022-10-25T13:00:48.392Z,101013.25
2022-10-25T13:03:33.400Z,101021.03
2022-10-25T13:06:20.678Z,101038.19
2022-10-25T13:08:48.382Z,101009.06
2022-10-25T13:11:14.866Z,100978.53
2022-10-25T13:13:52.094Z,101015.03
2022-10-25T13:16:27.990Z,100960.38
2022-10-25T13:19:57.740Z,100986.50
2022-10-25T13:22:12.706Z,101018.88
2022-10-25T13:24:46.175Z,101009.16
2022-10-25T13:27:12.610Z,101032.25
2022-10-25T13:30:00.927Z,100999.94
2022-10-25T13:32:31.719Z,101013.53
2022-10-25T13:34:59.065Z,101022.41
2022-10-25T13:37:31.819Z,101025.69
2022-10-25T13:40:02.951Z,101033.16
2022-10-25T13:42:36.173Z,101033.63
2022-10-25T13:45:02.632Z,101060.41
2022-10-25T13:47:37.531Z,101040.47
2022-10-25T13:50:26.966Z,101037.34
2022-10-25T13:53:02.956Z,100923.53
2022-10-25T13:55:34.963Z,100938.63
2022-10-25T13:58:01.720Z,100838.81
2022-10-25T14:00:38.737Z,101008.09
2022-10-25T14:03:45.255Z,101041.72
2022-10-25T14:06:21.708Z,101023.13
2022-10-25T14:08:56.135Z,101035.13
2022-10-25T14:11:37.740Z,101044.97
2022-10-25T14:14:31.837Z,101038.00
2022-10-25T14:17:32.060Z,101040.69
2022-10-25T14:20:02.324Z,101040.47
2022-10-25T14:22:42.338Z,101046.44
2022-10-25T14:25:22.143Z,100960.16
2022-10-25T14:27:48.733Z,101052.06
2022-10-25T14:30:30.379Z,101051.09
2022-10-25T14:33:05.179Z,101048.06
2022-10-25T14:35:56.246Z,101048.38
2022-10-25T14:38:25.168Z,100950.78
2022-10-25T14:40:54.023Z,100821.25
2022-10-25T14:43:26.724Z,101041.47
2022-10-25T14:46:01.243Z,101066.19
2022-10-25T14:48:28.671Z,100956.75
2022-10-25T14:50:58.327Z,101048.53
2022-10-25T14:53:26.260Z,101007.63
2022-10-25T14:55:58.168Z,101027.81
2022-10-25T14:58:25.122Z,101050.97
2022-10-25T15:01:00.350Z,101050.22
2022-10-25T15:03:29.812Z,100794.56
2022-10-25T15:05:59.445Z,101045.56
2022-10-25T15:08:28.083Z,101052.09
2022-10-25T15:11:04.235Z,101043.88
2022-10-25T15:13:42.244Z,101042.25
2022-10-25T15:16:33.282Z,101054.28
2022-10-25T15:19:20.638Z,100846.75
2022-10-25T15:21:49.901Z,101048.41
2022-10-25T15:24:24.023Z,101056.66
2022-10-25T15:27:01.073Z,101063.56
2022-10-25T15:29:42.780Z,101062.53
2022-10-25T15:32:13.924Z,100951.25
2022-10-25T15:34:46.757Z,101089.94
2022-10-25T15:37:15.817Z,101074.81
2022-10-25T15:39:44.120Z,101094.00
2022-10-25T15:42:12.975Z,101070.09
2022-10-25T15:44:42.079Z,101075.22
2022-10-25T15:47:27.307Z,101069.00
2022-10-25T15:49:54.145Z,100992.81
2022-10-25T15:52:21.385Z,100920.72
2022-10-25T15:54:47.866Z,101080.72
2022-10-25T15:57:14.299Z,101073.13
2022-10-25T15:59:40.944Z,101076.44
2022-10-25T16:02:18.949Z,101075.13
2022-10-25T16:04:46.941Z,101065.13
2022-10-25T16:07:14.562Z,101049.47
2022-10-25T16:09:42.688Z,101029.06
2022-10-25T16:12:22.951Z,100996.94
2022-10-25T16:14:51.950Z,100976.78
2022-10-25T16:17:18.615Z,100956.53
2022-10-25T16:19:45.218Z,101041.22
2022-10-25T16:22:11.630Z,101069.69
2022-10-25T16:24:38.251Z,101075.13
2022-10-25T16:27:05.989Z,101085.06
2022-10-25T16:29:32.473Z,101083.72
2022-10-25T16:32:04.198Z,100957.72
2022-10-25T16:34:32.334Z,101019.50
2022-10-25T16:37:00.210Z,101086.72
2022-10-25T16:39:26.611Z,101095.66
2022-10-25T16:41:54.985Z,101015.31
2022-10-25T16:44:21.727Z,101101.09
2022-10-25T16:46:49.404Z,101097.41
2022-10-25T16:49:16.053Z,101102.28
2022-10-25T16:51:44.204Z,101067.59
2022-10-25T16:54:12.050Z,101028.28
2022-10-25T16:56:39.662Z,101114.03
2022-10-25T16:59:06.055Z,101053.28
2022-10-25T17:01:35.174Z,101112.34
2022-10-25T17:04:05.704Z,101127.88
2022-10-25T17:06:41.164Z,101022.91
2022-10-25T17:09:09.549Z,101112.44
2022-10-25T17:11:36.568Z,101058.75
2022-10-25T17:14:03.738Z,101109.41
2022-10-25T17:16:30.401Z,101127.41
2022-10-25T17:18:57.274Z,101122.78
2022-10-25T17:21:24.186Z,101085.63
2022-10-25T17:23:52.738Z,101099.50
2022-10-25T17:26:21.107Z,101128.06
2022-10-25T17:28:49.752Z,101116.47
2022-10-25T17:31:16.790Z,100988.59
2022-10-25T17:33:43.615Z,101137.41
2022-10-25T17:36:16.368Z,101153.94
2022-10-25T17:38:43.209Z,101025.34
2022-10-25T17:41:10.332Z,101139.22
2022-10-25T17:43:39.481Z,100924.94
2022-10-25T17:46:14.516Z,101032.94
2022-10-25T17:48:42.031Z,101143.97
2022-10-25T17:51:11.627Z,100848.47
2022-10-25T17:53:39.628Z,101141.84
2022-10-25T17:56:18.794Z,101028.06
2022-10-25T17:58:47.293Z,101150.00
2022-10-25T18:01:18.124Z,101166.13
2022-10-25T18:03:47.889Z,101060.66
2022-10-25T18:06:16.939Z,101125.34
2022-10-25T18:08:45.452Z,101126.47
2022-10-25T18:11:22.169Z,101160.22
2022-10-25T18:13:51.336Z,101159.25
2022-10-25T18:16:18.232Z,100944.81
2022-10-25T18:18:44.653Z,101159.53
2022-10-25T18:21:14.130Z,101106.63
2022-10-25T18:23:43.856Z,101159.47
2022-10-25T18:26:13.289Z,101155.94
2022-10-25T18:28:40.850Z,101010.19
2022-10-25T18:31:20.083Z,101156.53
2022-10-25T18:33:47.948Z,101011.66
2022-10-25T18:36:18.970Z,101133.41
2022-10-25T18:38:48.759Z,101154.56
2022-10-25T18:41:32.001Z,101106.06
2022-10-25T18:44:01.032Z,101185.25
2022-10-25T18:46:31.981Z,101051.28
2022-10-25T18:48:58.852Z,101121.03
2022-10-25T18:51:48.849Z,101157.75
2022-10-25T18:54:15.310Z,101030.44
2022-10-25T18:56:45.244Z,101162.38
2022-10-25T18:59:11.971Z,101175.19
2022-10-25T19:01:50.819Z,101168.03
2022-10-25T19:04:19.083Z,101134.78
2022-10-25T19:06:45.647Z,101175.94
2022-10-25T19:09:15.219Z,101155.38
2022-10-25T19:11:43.150Z,101135.13
2022-10-25T19:14:09.565Z,101143.41
2022-10-25T19:16:40.630Z,101160.94
2022-10-25T19:19:08.340Z,101161.50
2022-10-25T19:21:35.732Z,100909.28
2022-10-25T19:24:02.385Z,101164.22
2022-10-25T19:26:29.116Z,101152.22
2022-10-25T19:29:01.754Z,101157.34
2022-10-25T19:31:28.845Z,100981.38
2022-10-25T19:34:00.186Z,101166.75
2022-10-25T19:36:26.706Z,101158.56
2022-10-25T19:38:53.402Z,101173.63
2022-10-25T19:41:25.878Z,101054.47
2022-10-25T19:43:52.743Z,101181.34
2022-10-25T19:46:19.649Z,101181.88
2022-10-25T19:48:47.736Z,101056.41
2022-10-25T19:51:17.448Z,101131.47
2022-10-25T19:53:44.334Z,100967.66
2022-10-25T19:56:19.740Z,101154.72
2022-10-25T19:58:46.883Z,101150.81
2022-10-25T20:01:16.181Z,101179.19
2022-10-25T20:03:44.709Z,101144.69
2022-10-25T20:06:17.531Z,101166.31
2022-10-25T20:08:49.579Z,101148.75
2022-10-25T20:11:17.212Z,101188.56
2022-10-25T20:13:45.262Z,101186.25
2022-10-25T20:16:13.711Z,101147.94
2022-10-25T20:18:42.151Z,101168.03
2022-10-25T20:21:15.948Z,101192.91
2022-10-25T20:23:49.133Z,101108.25
2022-10-25T20:26:22.327Z,101156.78
2022-10-25T20:28:52.131Z,101204.75
2022-10-25T20:31:23.348Z,101099.25
2022-10-25T20:33:50.441Z,101186.88
2022-10-25T20:36:17.485Z,101183.22
2022-10-25T20:38:43.875Z,101200.59
2022-10-25T20:41:23.330Z,101197.66
2022-10-25T20:43:54.564Z,101193.41
2022-10-25T20:46:25.035Z,101190.06
2022-10-25T20:48:51.790Z,101180.19
2022-10-25T20:51:18.721Z,101193.16
2022-10-25T20:53:46.823Z,101184.66
2022-10-25T20:56:16.135Z,101158.88
2022-10-25T20:58:43.134Z,101055.59
2022-10-25T21:01:10.323Z,101215.44
2022-10-25T21:03:37.203Z,101209.84
2022-10-25T21:06:07.422Z,101231.84
2022-10-25T21:08:37.536Z,101206.41
2022-10-25T21:11:06.404Z,101171.56
2022-10-25T21:13:34.995Z,101214.19
2022-10-25T21:16:19.828Z,101210.78
2022-10-25T21:18:46.365Z,101196.38
2022-10-25T21:21:18.063Z,101136.47
2022-10-25T21:23:46.596Z,101217.59
2022-10-25T21:26:13.216Z,101156.25
2022-10-25T21:28:41.270Z,101103.41
2022-10-25T21:31:13.276Z,101087.53
2022-10-25T21:33:42.046Z,101051.72
2022-10-25T21:36:12.036Z,101083.00
2022-10-25T21:38:38.931Z,101228.66
2022-10-25T21:41:16.354Z,101248.53
2022-10-25T21:43:45.603Z,101218.03
2022-10-25T21:46:13.349Z,101205.22
2022-10-25T21:48:41.036Z,101203.19
2022-10-25T21:51:07.982Z,100997.78
2022-10-25T21:53:34.395Z,101240.41
2022-10-25T21:56:23.213Z,101136.91
2022-10-25T21:58:51.091Z,101242.09
2022-10-25T22:01:20.481Z,101246.50
2022-10-25T22:03:47.615Z,101194.66
2022-10-25T22:06:20.303Z,101114.53
2022-10-25T22:08:47.651Z,101218.56
2022-10-25T22:11:32.651Z,101230.72
2022-10-25T22:14:02.591Z,101242.94
2022-10-25T22:16:30.077Z,101239.19
2022-10-25T22:18:58.976Z,101216.94
2022-10-25T22:21:28.172Z,101239.53
2022-10-25T22:23:54.527Z,101086.00
2022-10-25T22:26:21.505Z,101087.47
2022-10-25T22:28:56.042Z,101215.91
2022-10-25T22:31:23.019Z,101190.41
2022-10-25T22:33:58.500Z,101235.66
2022-10-25T22:36:27.924Z,101137.84
2022-10-25T22:38:55.277Z,101242.66
2022-10-25T22:41:23.700Z,101245.19
2022-10-25T22:43:50.900Z,101247.69
2022-10-25T22:46:25.358Z,101150.66
2022-10-25T22:48:55.311Z,101119.63
2022-10-25T22:51:22.836Z,101248.50
2022-10-25T22:53:49.255Z,101243.13
2022-10-25T22:56:21.374Z,101059.13
2022-10-25T22:58:48.895Z,101253.91
2022-10-25T23:01:18.254Z,101252.28
2022-10-25T23:03:47.155Z,101172.59
2022-10-25T23:06:16.136Z,101198.16
2022-10-25T23:08:42.958Z,101247.91
2022-10-25T23:11:18.567Z,101085.97
2022-10-25T23:13:45.620Z,101262.41
2022-10-25T23:16:14.038Z,101254.34
2022-10-25T23:18:41.056Z,101259.91
2022-10-25T23:21:09.866Z,101265.53
2022-10-25T23:23:38.902Z,101256.41
2022-10-25T23:28:38.874Z,101251.41
2022-10-25T23:31:07.687Z,101131.44
2022-10-25T23:33:34.747Z,101094.88
2022-10-25T23:36:09.342Z,101148.97
2022-10-25T23:38:36.763Z,101252.44
2022-10-25T23:41:03.839Z,101173.63
2022-10-25T23:43:30.885Z,101259.44
2022-10-25T23:45:57.574Z,101037.63
2022-10-25T23:48:23.907Z,101221.47
2022-10-25T23:51:11.950Z,101253.84
2022-10-25T23:53:38.506Z,101258.66
2022-10-25T23:56:07.009Z,101247.78
2022-10-25T23:58:34.078Z,101244.84
